sensor_id;sensor_type;location;lat;lon;timestamp;pressure;altitude;pressure_sealevel;temperature
21336;BMP180;10826;52.536;13.432;2022-10-16T00:01:28;100598.00;;;22.10
21336;BMP180;10826;52.536;13.432;2022-10-16T00:03:57;100604.00;;;22.10
21336;BMP180;10826;52.536;13.432;2022-10-16T00:06:25;100604.00;;;22.10
21336;BMP180;10826;52.536;13.432;2022-10-16T00:08:51;100599.00;;;22.10
21336;BMP180;10826;52.536;13.432;2022-10-16T00:11:31;100608.00;;;22.10
21336;BMP180;10826;52.536;13.432;2022-10-16T00:14:06;100608.00;;;22.10
21336;BMP180;10826;52.536;13.432;2022-10-16T00:16:34;100604.00;;;22.20
21336;BMP180;10826;52.536;13.432;2022-10-16T00:19:00;100606.00;;;22.20
21336;BMP180;10826;52.536;13.432;2022-10-16T00:21:29;100611.00;;;22.20
21336;BMP180;10826;52.536;13.432;2022-10-16T00:23:59;100609.00;;;22.30
21336;BMP180;10826;52.536;13.432;2022-10-16T00:26:26;100611.00;;;22.20
21336;BMP180;10826;52.536;13.432;2022-10-16T00:28:52;100617.00;;;22.30
21336;BMP180;10826;52.536;13.432;2022-10-16T00:31:21;100616.00;;;22.30
21336;BMP180;10826;52.536;13.432;2022-10-16T00:33:49;100619.00;;;22.30
21336;BMP180;10826;52.536;13.432;2022-10-16T00:36:20;100625.00;;;22.40
21336;BMP180;10826;52.536;13.432;2022-10-16T00:38:46;100631.00;;;22.30
21336;BMP180;10826;52.536;13.432;2022-10-16T00:41:16;100624.00;;;22.40
21336;BMP180;10826;52.536;13.432;2022-10-16T00:43:51;100626.00;;;22.40
21336;BMP180;10826;52.536;13.432;2022-10-16T00:46:29;100629.00;;;22.40
21336;BMP180;10826;52.536;13.432;2022-10-16T00:51:40;100615.00;;;22.40
21336;BMP180;10826;52.536;13.432;2022-10-16T00:54:14;100629.00;;;22.40
21336;BMP180;10826;52.536;13.432;2022-10-16T00:56:42;100622.00;;;22.30
21336;BMP180;10826;52.536;13.432;2022-10-16T00:59:19;100622.00;;;22.40
21336;BMP180;10826;52.536;13.432;2022-10-16T01:01:46;100636.00;;;22.30
21336;BMP180;10826;52.536;13.432;2022-10-16T01:04:12;100626.00;;;22.30
21336;BMP180;10826;52.536;13.432;2022-10-16T01:10:07;100645.00;;;22.40
21336;BMP180;10826;52.536;13.432;2022-10-16T01:18:37;100639.00;;;22.30
21336;BMP180;10826;52.536;13.432;2022-10-16T01:21:13;100628.00;;;22.30
21336;BMP180;10826;52.536;13.432;2022-10-16T01:35:32;100651.00;;;22.30
21336;BMP180;10826;52.536;13.432;2022-10-16T01:38:14;100655.00;;;22.20
21336;BMP180;10826;52.536;13.432;2022-10-16T01:40:50;100657.00;;;22.20
21336;BMP180;10826;52.536;13.432;2022-10-16T01:43:33;100661.00;;;22.30
21336;BMP180;10826;52.536;13.432;2022-10-16T01:46:02;100664.00;;;22.20
21336;BMP180;10826;52.536;13.432;2022-10-16T01:48:30;100654.00;;;22.20
21336;BMP180;10826;52.536;13.432;2022-10-16T01:51:11;100661.00;;;22.30
21336;BMP180;10826;52.536;13.432;2022-10-16T01:53:40;100655.00;;;22.20
21336;BMP180;10826;52.536;13.432;2022-10-16T01:56:10;100658.00;;;22.30
21336;BMP180;10826;52.536;13.432;2022-10-16T01:58:49;100662.00;;;22.30
21336;BMP180;10826;52.536;13.432;2022-10-16T02:01:22;100669.00;;;22.30
21336;BMP180;10826;52.536;13.432;2022-10-16T02:03:54;100675.00;;;22.30
21336;BMP180;10826;52.536;13.432;2022-10-16T02:06:21;100674.00;;;22.30
21336;BMP180;10826;52.536;13.432;2022-10-16T02:08:48;100669.00;;;22.30
21336;BMP180;10826;52.536;13.432;2022-10-16T02:11:14;100674.00;;;22.30
21336;BMP180;10826;52.536;13.432;2022-10-16T02:13:46;100676.00;;;22.30
21336;BMP180;10826;52.536;13.432;2022-10-16T02:16:14;100671.00;;;22.40
21336;BMP180;10826;52.536;13.432;2022-10-16T02:18:42;100682.00;;;22.40
21336;BMP180;10826;52.536;13.432;2022-10-16T02:21:28;100693.00;;;22.50
21336;BMP180;10826;52.536;13.432;2022-10-16T02:24:03;100707.00;;;22.50
21336;BMP180;10826;52.536;13.432;2022-10-16T02:26:47;100702.00;;;22.50
21336;BMP180;10826;52.536;13.432;2022-10-16T02:29:22;100699.00;;;22.50
21336;BMP180;10826;52.536;13.432;2022-10-16T02:31:55;100678.00;;;22.50
21336;BMP180;10826;52.536;13.432;2022-10-16T02:34:25;100688.00;;;22.50
21336;BMP180;10826;52.536;13.432;2022-10-16T02:36:54;100702.00;;;22.50
21336;BMP180;10826;52.536;13.432;2022-10-16T02:39:20;100682.00;;;22.50
21336;BMP180;10826;52.536;13.432;2022-10-16T02:41:47;100694.00;;;22.60
21336;BMP180;10826;52.536;13.432;2022-10-16T02:44:13;100693.00;;;22.60
21336;BMP180;10826;52.536;13.432;2022-10-16T02:46:40;100702.00;;;22.60
21336;BMP180;10826;52.536;13.432;2022-10-16T02:49:05;100697.00;;;22.60
21336;BMP180;10826;52.536;13.432;2022-10-16T02:51:31;100692.00;;;22.60
21336;BMP180;10826;52.536;13.432;2022-10-16T02:53:57;100627.00;;;22.60
21336;BMP180;10826;52.536;13.432;2022-10-16T02:56:23;100702.00;;;22.60
21336;BMP180;10826;52.536;13.432;2022-10-16T02:58:49;100701.00;;;22.60
21336;BMP180;10826;52.536;13.432;2022-10-16T03:01:15;100696.00;;;22.60
21336;BMP180;10826;52.536;13.432;2022-10-16T03:03:42;100709.00;;;22.60
21336;BMP180;10826;52.536;13.432;2022-10-16T03:06:08;100699.00;;;22.60
21336;BMP180;10826;52.536;13.432;2022-10-16T03:08:34;100709.00;;;22.60
21336;BMP180;10826;52.536;13.432;2022-10-16T03:11:00;100725.00;;;22.50
21336;BMP180;10826;52.536;13.432;2022-10-16T03:13:26;100703.00;;;22.50
21336;BMP180;10826;52.536;13.432;2022-10-16T03:15:52;100716.00;;;22.50
21336;BMP180;10826;52.536;13.432;2022-10-16T03:18:18;100704.00;;;22.50
21336;BMP180;10826;52.536;13.432;2022-10-16T03:20:43;100725.00;;;22.40
21336;BMP180;10826;52.536;13.432;2022-10-16T03:23:10;100729.00;;;22.40
21336;BMP180;10826;52.536;13.432;2022-10-16T03:25:36;100719.00;;;22.40
21336;BMP180;10826;52.536;13.432;2022-10-16T03:28:02;100710.00;;;22.40
21336;BMP180;10826;52.536;13.432;2022-10-16T03:30:29;100733.00;;;22.20
21336;BMP180;10826;52.536;13.432;2022-10-16T03:32:55;100728.00;;;22.30
21336;BMP180;10826;52.536;13.432;2022-10-16T03:35:22;100731.00;;;22.30
21336;BMP180;10826;52.536;13.432;2022-10-16T03:37:49;100742.00;;;22.30
21336;BMP180;10826;52.536;13.432;2022-10-16T03:40:16;100750.00;;;22.20
21336;BMP180;10826;52.536;13.432;2022-10-16T03:42:43;100754.00;;;22.20
21336;BMP180;10826;52.536;13.432;2022-10-16T03:45:10;100759.00;;;22.20
21336;BMP180;10826;52.536;13.432;2022-10-16T03:47:37;100758.00;;;22.10
21336;BMP180;10826;52.536;13.432;2022-10-16T03:50:04;100759.00;;;22.10
21336;BMP180;10826;52.536;13.432;2022-10-16T03:52:30;100759.00;;;22.10
21336;BMP180;10826;52.536;13.432;2022-10-16T03:54:57;100775.00;;;22.10
21336;BMP180;10826;52.536;13.432;2022-10-16T03:57:23;100775.00;;;22.00
21336;BMP180;10826;52.536;13.432;2022-10-16T03:59:49;100773.00;;;22.00
21336;BMP180;10826;52.536;13.432;2022-10-16T04:02:15;100779.00;;;22.00
21336;BMP180;10826;52.536;13.432;2022-10-16T04:04:41;100787.00;;;22.00
21336;BMP180;10826;52.536;13.432;2022-10-16T04:07:07;100765.00;;;22.00
21336;BMP180;10826;52.536;13.432;2022-10-16T04:09:33;100769.00;;;22.00
21336;BMP180;10826;52.536;13.432;2022-10-16T04:11:59;100785.00;;;22.00
21336;BMP180;10826;52.536;13.432;2022-10-16T04:14:25;100775.00;;;22.00
21336;BMP180;10826;52.536;13.432;2022-10-16T04:16:50;100782.00;;;21.90
21336;BMP180;10826;52.536;13.432;2022-10-16T04:19:16;100787.00;;;21.90
21336;BMP180;10826;52.536;13.432;2022-10-16T04:21:42;100793.00;;;21.90
21336;BMP180;10826;52.536;13.432;2022-10-16T04:24:08;100794.00;;;21.90
21336;BMP180;10826;52.536;13.432;2022-10-16T04:26:34;100789.00;;;21.90
21336;BMP180;10826;52.536;13.432;2022-10-16T04:29:00;100785.00;;;21.90
21336;BMP180;10826;52.536;13.432;2022-10-16T04:31:26;100797.00;;;21.90
21336;BMP180;10826;52.536;13.432;2022-10-16T04:33:52;100758.00;;;21.90
21336;BMP180;10826;52.536;13.432;2022-10-16T04:36:18;100773.00;;;21.90
21336;BMP180;10826;52.536;13.432;2022-10-16T04:38:44;100759.00;;;21.80
21336;BMP180;10826;52.536;13.432;2022-10-16T04:41:09;100760.00;;;21.80
21336;BMP180;10826;52.536;13.432;2022-10-16T04:43:35;100764.00;;;21.80
21336;BMP180;10826;52.536;13.432;2022-10-16T04:46:01;100764.00;;;21.80
21336;BMP180;10826;52.536;13.432;2022-10-16T04:48:27;100757.00;;;21.80
21336;BMP180;10826;52.536;13.432;2022-10-16T04:50:53;100765.00;;;21.80
21336;BMP180;10826;52.536;13.432;2022-10-16T04:53:19;100758.00;;;21.80
21336;BMP180;10826;52.536;13.432;2022-10-16T04:55:45;100758.00;;;21.80
21336;BMP180;10826;52.536;13.432;2022-10-16T04:58:11;100752.00;;;21.70
21336;BMP180;10826;52.536;13.432;2022-10-16T05:00:36;100723.00;;;21.70
21336;BMP180;10826;52.536;13.432;2022-10-16T05:03:04;100774.00;;;21.70
21336;BMP180;10826;52.536;13.432;2022-10-16T05:05:33;100782.00;;;21.70
21336;BMP180;10826;52.536;13.432;2022-10-16T05:07:59;100790.00;;;21.70
21336;BMP180;10826;52.536;13.432;2022-10-16T05:10:25;100784.00;;;21.60
21336;BMP180;10826;52.536;13.432;2022-10-16T05:12:50;100785.00;;;21.60
21336;BMP180;10826;52.536;13.432;2022-10-16T05:15:17;100810.00;;;21.60
21336;BMP180;10826;52.536;13.432;2022-10-16T05:17:44;100812.00;;;21.60
21336;BMP180;10826;52.536;13.432;2022-10-16T05:20:11;100809.00;;;21.60
21336;BMP180;10826;52.536;13.432;2022-10-16T05:22:37;100809.00;;;21.50
21336;BMP180;10826;52.536;13.432;2022-10-16T05:25:04;100817.00;;;21.50
21336;BMP180;10826;52.536;13.432;2022-10-16T05:27:30;100813.00;;;21.50
21336;BMP180;10826;52.536;13.432;2022-10-16T05:29:56;100804.00;;;21.50
21336;BMP180;10826;52.536;13.432;2022-10-16T05:32:22;100797.00;;;21.50
21336;BMP180;10826;52.536;13.432;2022-10-16T05:34:48;100800.00;;;21.50
21336;BMP180;10826;52.536;13.432;2022-10-16T05:37:14;100803.00;;;21.50
21336;BMP180;10826;52.536;13.432;2022-10-16T05:39:39;100804.00;;;21.50
21336;BMP180;10826;52.536;13.432;2022-10-16T05:42:06;100812.00;;;21.50
21336;BMP180;10826;52.536;13.432;2022-10-16T05:44:32;100821.00;;;21.60
21336;BMP180;10826;52.536;13.432;2022-10-16T05:46:58;100830.00;;;21.60
21336;BMP180;10826;52.536;13.432;2022-10-16T05:49:24;100821.00;;;21.60
21336;BMP180;10826;52.536;13.432;2022-10-16T05:51:50;100817.00;;;21.60
21336;BMP180;10826;52.536;13.432;2022-10-16T05:54:16;100829.00;;;21.60
21336;BMP180;10826;52.536;13.432;2022-10-16T05:56:42;100825.00;;;21.60
21336;BMP180;10826;52.536;13.432;2022-10-16T05:59:08;100808.00;;;21.60
21336;BMP180;10826;52.536;13.432;2022-10-16T06:01:34;100824.00;;;21.70
21336;BMP180;10826;52.536;13.432;2022-10-16T06:04:01;100817.00;;;21.70
21336;BMP180;10826;52.536;13.432;2022-10-16T06:06:28;100813.00;;;21.70
21336;BMP180;10826;52.536;13.432;2022-10-16T06:08:56;100812.00;;;21.70
21336;BMP180;10826;52.536;13.432;2022-10-16T06:11:30;100823.00;;;21.70
21336;BMP180;10826;52.536;13.432;2022-10-16T06:13:59;100838.00;;;21.70
21336;BMP180;10826;52.536;13.432;2022-10-16T06:16:27;100844.00;;;21.70
21336;BMP180;10826;52.536;13.432;2022-10-16T06:18:56;100846.00;;;21.80
21336;BMP180;10826;52.536;13.432;2022-10-16T06:21:24;100848.00;;;21.80
21336;BMP180;10826;52.536;13.432;2022-10-16T06:23:51;100857.00;;;21.80
21336;BMP180;10826;52.536;13.432;2022-10-16T06:26:21;100838.00;;;21.80
21336;BMP180;10826;52.536;13.432;2022-10-16T06:28:47;100846.00;;;21.80
21336;BMP180;10826;52.536;13.432;2022-10-16T06:31:14;100844.00;;;21.90
21336;BMP180;10826;52.536;13.432;2022-10-16T06:33:41;100861.00;;;21.90
21336;BMP180;10826;52.536;13.432;2022-10-16T06:36:13;100863.00;;;22.00
21336;BMP180;10826;52.536;13.432;2022-10-16T06:38:40;100866.00;;;22.00
21336;BMP180;10826;52.536;13.432;2022-10-16T06:41:07;100870.00;;;22.00
21336;BMP180;10826;52.536;13.432;2022-10-16T06:43:35;100872.00;;;22.00
21336;BMP180;10826;52.536;13.432;2022-10-16T06:46:03;100882.00;;;22.10
21336;BMP180;10826;52.536;13.432;2022-10-16T06:48:29;100881.00;;;22.00
21336;BMP180;10826;52.536;13.432;2022-10-16T06:51:11;100890.00;;;22.20
21336;BMP180;10826;52.536;13.432;2022-10-16T06:53:41;100891.00;;;22.10
21336;BMP180;10826;52.536;13.432;2022-10-16T06:56:19;100878.00;;;22.20
21336;BMP180;10826;52.536;13.432;2022-10-16T06:58:46;100885.00;;;22.20
21336;BMP180;10826;52.536;13.432;2022-10-16T07:01:13;100883.00;;;22.20
21336;BMP180;10826;52.536;13.432;2022-10-16T07:03:42;100889.00;;;22.30
21336;BMP180;10826;52.536;13.432;2022-10-16T07:06:11;100887.00;;;22.30
21336;BMP180;10826;52.536;13.432;2022-10-16T07:08:41;100893.00;;;22.40
21336;BMP180;10826;52.536;13.432;2022-10-16T07:11:14;100899.00;;;22.50
21336;BMP180;10826;52.536;13.432;2022-10-16T07:13:42;100907.00;;;22.50
21336;BMP180;10826;52.536;13.432;2022-10-16T07:16:13;100923.00;;;22.60
21336;BMP180;10826;52.536;13.432;2022-10-16T07:18:40;100913.00;;;22.70
21336;BMP180;10826;52.536;13.432;2022-10-16T07:21:09;100920.00;;;22.90
21336;BMP180;10826;52.536;13.432;2022-10-16T07:23:36;100913.00;;;23.00
21336;BMP180;10826;52.536;13.432;2022-10-16T07:26:03;100916.00;;;23.10
21336;BMP180;10826;52.536;13.432;2022-10-16T07:28:31;100903.00;;;23.20
21336;BMP180;10826;52.536;13.432;2022-10-16T07:31:11;100910.00;;;23.30
21336;BMP180;10826;52.536;13.432;2022-10-16T07:33:39;100909.00;;;23.30
21336;BMP180;10826;52.536;13.432;2022-10-16T07:36:05;100913.00;;;23.40
21336;BMP180;10826;52.536;13.432;2022-10-16T07:38:32;100909.00;;;23.50
21336;BMP180;10826;52.536;13.432;2022-10-16T07:41:00;100916.00;;;23.50
21336;BMP180;10826;52.536;13.432;2022-10-16T07:43:27;100918.00;;;23.60
21336;BMP180;10826;52.536;13.432;2022-10-16T07:45:53;100921.00;;;23.60
21336;BMP180;10826;52.536;13.432;2022-10-16T07:48:22;100930.00;;;23.70
21336;BMP180;10826;52.536;13.432;2022-10-16T07:50:49;100924.00;;;23.70
21336;BMP180;10826;52.536;13.432;2022-10-16T07:53:15;100915.00;;;23.80
21336;BMP180;10826;52.536;13.432;2022-10-16T07:55:42;100928.00;;;23.80
21336;BMP180;10826;52.536;13.432;2022-10-16T07:58:08;100918.00;;;23.90
21336;BMP180;10826;52.536;13.432;2022-10-16T08:00:36;100911.00;;;23.90
21336;BMP180;10826;52.536;13.432;2022-10-16T08:03:03;100904.00;;;23.90
21336;BMP180;10826;52.536;13.432;2022-10-16T08:05:31;100934.00;;;23.90
21336;BMP180;10826;52.536;13.432;2022-10-16T08:07:59;100927.00;;;23.90
21336;BMP180;10826;52.536;13.432;2022-10-16T08:10:27;100958.00;;;23.90
21336;BMP180;10826;52.536;13.432;2022-10-16T08:12:54;100946.00;;;23.90
21336;BMP180;10826;52.536;13.432;2022-10-16T08:15:21;100952.00;;;23.80
21336;BMP180;10826;52.536;13.432;2022-10-16T08:18:03;100963.00;;;24.00
21336;BMP180;10826;52.536;13.432;2022-10-16T08:20:32;100959.00;;;24.00
21336;BMP180;10826;52.536;13.432;2022-10-16T08:23:00;100952.00;;;24.00
21336;BMP180;10826;52.536;13.432;2022-10-16T08:25:28;100942.00;;;24.10
21336;BMP180;10826;52.536;13.432;2022-10-16T08:27:55;100950.00;;;24.10
21336;BMP180;10826;52.536;13.432;2022-10-16T08:30:23;100938.00;;;24.20
21336;BMP180;10826;52.536;13.432;2022-10-16T08:32:50;100951.00;;;24.20
21336;BMP180;10826;52.536;13.432;2022-10-16T08:35:16;100951.00;;;24.20
21336;BMP180;10826;52.536;13.432;2022-10-16T08:37:43;100974.00;;;24.20
21336;BMP180;10826;52.536;13.432;2022-10-16T08:40:25;100961.00;;;24.30
21336;BMP180;10826;52.536;13.432;2022-10-16T08:43:31;100968.00;;;24.30
21336;BMP180;10826;52.536;13.432;2022-10-16T08:48:59;100953.00;;;24.20
21336;BMP180;10826;52.536;13.432;2022-10-16T08:51:36;100966.00;;;24.30
21336;BMP180;10826;52.536;13.432;2022-10-16T08:54:37;100965.00;;;24.40
21336;BMP180;10826;52.536;13.432;2022-10-16T08:57:13;100930.00;;;24.40
21336;BMP180;10826;52.536;13.432;2022-10-16T08:59:39;100970.00;;;24.30
21336;BMP180;10826;52.536;13.432;2022-10-16T09:02:32;100977.00;;;24.40
21336;BMP180;10826;52.536;13.432;2022-10-16T09:11:47;100992.00;;;24.50
21336;BMP180;10826;52.536;13.432;2022-10-16T09:17:37;100994.00;;;24.60
21336;BMP180;10826;52.536;13.432;2022-10-16T09:22:46;100995.00;;;24.60
21336;BMP180;10826;52.536;13.432;2022-10-16T09:25:21;100995.00;;;24.70
21336;BMP180;10826;52.536;13.432;2022-10-16T09:27:52;100984.00;;;24.70
21336;BMP180;10826;52.536;13.432;2022-10-16T09:30:21;100985.00;;;24.80
21336;BMP180;10826;52.536;13.432;2022-10-16T09:32:53;100996.00;;;24.80
21336;BMP180;10826;52.536;13.432;2022-10-16T09:35:33;100986.00;;;24.80
21336;BMP180;10826;52.536;13.432;2022-10-16T09:38:01;100985.00;;;24.80
21336;BMP180;10826;52.536;13.432;2022-10-16T09:40:38;101002.00;;;24.80
21336;BMP180;10826;52.536;13.432;2022-10-16T09:43:27;101006.00;;;24.80
21336;BMP180;10826;52.536;13.432;2022-10-16T09:46:06;101012.00;;;24.80
21336;BMP180;10826;52.536;13.432;2022-10-16T09:48:46;101011.00;;;24.80
21336;BMP180;10826;52.536;13.432;2022-10-16T09:51:36;101016.00;;;24.80
21336;BMP180;10826;52.536;13.432;2022-10-16T09:54:19;101013.00;;;24.80
21336;BMP180;10826;52.536;13.432;2022-10-16T09:56:46;101016.00;;;24.70
21336;BMP180;10826;52.536;13.432;2022-10-16T09:59:18;101021.00;;;24.70
21336;BMP180;10826;52.536;13.432;2022-10-16T10:01:49;101035.00;;;24.70
21336;BMP180;10826;52.536;13.432;2022-10-16T10:04:18;101022.00;;;24.70
21336;BMP180;10826;52.536;13.432;2022-10-16T10:06:49;101018.00;;;24.70
21336;BMP180;10826;52.536;13.432;2022-10-16T10:09:37;101031.00;;;24.80
21336;BMP180;10826;52.536;13.432;2022-10-16T10:12:21;101041.00;;;24.90
21336;BMP180;10826;52.536;13.432;2022-10-16T10:14:55;101042.00;;;24.90
21336;BMP180;10826;52.536;13.432;2022-10-16T10:17:25;101032.00;;;24.90
21336;BMP180;10826;52.536;13.432;2022-10-16T10:19:58;101042.00;;;25.00
21336;BMP180;10826;52.536;13.432;2022-10-16T10:22:43;101049.00;;;25.10
21336;BMP180;10826;52.536;13.432;2022-10-16T10:25:19;101056.00;;;25.10
21336;BMP180;10826;52.536;13.432;2022-10-16T10:28:17;101042.00;;;25.20
21336;BMP180;10826;52.536;13.432;2022-10-16T10:30:57;101044.00;;;25.20
21336;BMP180;10826;52.536;13.432;2022-10-16T10:33:47;101054.00;;;25.20
21336;BMP180;10826;52.536;13.432;2022-10-16T10:36:37;101061.00;;;25.20
21336;BMP180;10826;52.536;13.432;2022-10-16T10:39:22;101070.00;;;25.10
21336;BMP180;10826;52.536;13.432;2022-10-16T10:45:02;101076.00;;;25.10
21336;BMP180;10826;52.536;13.432;2022-10-16T10:47:47;101076.00;;;25.20
21336;BMP180;10826;52.536;13.432;2022-10-16T10:50:52;101060.00;;;25.30
21336;BMP180;10826;52.536;13.432;2022-10-16T10:53:52;101055.00;;;25.30
21336;BMP180;10826;52.536;13.432;2022-10-16T10:56:45;101064.00;;;25.40
21336;BMP180;10826;52.536;13.432;2022-10-16T10:59:59;101060.00;;;25.50
21336;BMP180;10826;52.536;13.432;2022-10-16T11:02:56;101058.00;;;25.60
21336;BMP180;10826;52.536;13.432;2022-10-16T11:08:20;101072.00;;;25.70
21336;BMP180;10826;52.536;13.432;2022-10-16T11:10:58;101055.00;;;25.80
21336;BMP180;10826;52.536;13.432;2022-10-16T11:13:39;101085.00;;;25.90
21336;BMP180;10826;52.536;13.432;2022-10-16T11:16:31;101079.00;;;26.00
21336;BMP180;10826;52.536;13.432;2022-10-16T11:22:42;101075.00;;;26.20
21336;BMP180;10826;52.536;13.432;2022-10-16T11:25:25;101067.00;;;26.20
21336;BMP180;10826;52.536;13.432;2022-10-16T11:28:27;101073.00;;;26.20
21336;BMP180;10826;52.536;13.432;2022-10-16T11:34:32;101075.00;;;26.20
21336;BMP180;10826;52.536;13.432;2022-10-16T11:37:14;101071.00;;;26.10
21336;BMP180;10826;52.536;13.432;2022-10-16T11:39:44;101067.00;;;26.00
21336;BMP180;10826;52.536;13.432;2022-10-16T11:42:30;101066.00;;;26.00
21336;BMP180;10826;52.536;13.432;2022-10-16T11:45:24;101069.00;;;25.90
21336;BMP180;10826;52.536;13.432;2022-10-16T11:53:42;101071.00;;;25.60
21336;BMP180;10826;52.536;13.432;2022-10-16T11:56:18;101076.00;;;25.50
21336;BMP180;10826;52.536;13.432;2022-10-16T11:59:03;101087.00;;;25.40
21336;BMP180;10826;52.536;13.432;2022-10-16T12:01:41;101082.00;;;25.30
21336;BMP180;10826;52.536;13.432;2022-10-16T12:04:39;101083.00;;;25.20
21336;BMP180;10826;52.536;13.432;2022-10-16T12:07:21;101085.00;;;25.10
21336;BMP180;10826;52.536;13.432;2022-10-16T12:09:49;101088.00;;;25.00
21336;BMP180;10826;52.536;13.432;2022-10-16T12:15:20;101102.00;;;24.90
21336;BMP180;10826;52.536;13.432;2022-10-16T12:17:47;101105.00;;;24.80
21336;BMP180;10826;52.536;13.432;2022-10-16T12:20:31;101084.00;;;24.80
21336;BMP180;10826;52.536;13.432;2022-10-16T12:23:06;101107.00;;;24.80
21336;BMP180;10826;52.536;13.432;2022-10-16T12:25:35;101110.00;;;24.80
21336;BMP180;10826;52.536;13.432;2022-10-16T12:30:42;101106.00;;;24.80
21336;BMP180;10826;52.536;13.432;2022-10-16T12:33:28;101113.00;;;24.90
21336;BMP180;10826;52.536;13.432;2022-10-16T12:35:57;101119.00;;;24.80
21336;BMP180;10826;52.536;13.432;2022-10-16T12:38:31;101102.00;;;24.90
21336;BMP180;10826;52.536;13.432;2022-10-16T12:41:07;101124.00;;;24.90
21336;BMP180;10826;52.536;13.432;2022-10-16T12:43:45;101127.00;;;25.00
21336;BMP180;10826;52.536;13.432;2022-10-16T12:48:43;101119.00;;;25.00
21336;BMP180;10826;52.536;13.432;2022-10-16T12:51:36;101112.00;;;25.00
21336;BMP180;10826;52.536;13.432;2022-10-16T12:57:19;101138.00;;;25.10
21336;BMP180;10826;52.536;13.432;2022-10-16T13:04:00;101141.00;;;25.10
21336;BMP180;10826;52.536;13.432;2022-10-16T13:09:40;101144.00;;;25.10
21336;BMP180;10826;52.536;13.432;2022-10-16T13:15:27;101149.00;;;25.20
21336;BMP180;10826;52.536;13.432;2022-10-16T13:18:20;101149.00;;;25.20
21336;BMP180;10826;52.536;13.432;2022-10-16T13:24:11;101160.00;;;25.40
21336;BMP180;10826;52.536;13.432;2022-10-16T13:29:39;101164.00;;;25.30
21336;BMP180;10826;52.536;13.432;2022-10-16T13:32:11;101158.00;;;25.40
21336;BMP180;10826;52.536;13.432;2022-10-16T13:34:48;101174.00;;;25.40
21336;BMP180;10826;52.536;13.432;2022-10-16T13:37:23;101180.00;;;25.50
21336;BMP180;10826;52.536;13.432;2022-10-16T13:39:49;101165.00;;;25.50
21336;BMP180;10826;52.536;13.432;2022-10-16T13:42:29;101164.00;;;25.50
21336;BMP180;10826;52.536;13.432;2022-10-16T13:44:56;101174.00;;;25.50
21336;BMP180;10826;52.536;13.432;2022-10-16T13:47:27;101172.00;;;25.60
21336;BMP180;10826;52.536;13.432;2022-10-16T13:50:11;101160.00;;;25.60
21336;BMP180;10826;52.536;13.432;2022-10-16T13:52:37;101168.00;;;25.60
21336;BMP180;10826;52.536;13.432;2022-10-16T13:55:18;101170.00;;;25.60
21336;BMP180;10826;52.536;13.432;2022-10-16T13:57:44;101165.00;;;25.60
21336;BMP180;10826;52.536;13.432;2022-10-16T14:00:26;101171.00;;;25.60
21336;BMP180;10826;52.536;13.432;2022-10-16T14:03:03;101167.00;;;25.60
21336;BMP180;10826;52.536;13.432;2022-10-16T14:05:30;101168.00;;;25.50
21336;BMP180;10826;52.536;13.432;2022-10-16T14:07:57;101181.00;;;25.50
21336;BMP180;10826;52.536;13.432;2022-10-16T14:10:29;101179.00;;;25.50
21336;BMP180;10826;52.536;13.432;2022-10-16T14:13:07;101180.00;;;25.60
21336;BMP180;10826;52.536;13.432;2022-10-16T14:15:37;101186.00;;;25.50
21336;BMP180;10826;52.536;13.432;2022-10-16T14:18:04;101175.00;;;25.50
21336;BMP180;10826;52.536;13.432;2022-10-16T14:20:33;101175.00;;;25.50
21336;BMP180;10826;52.536;13.432;2022-10-16T14:25:45;101193.00;;;25.50
21336;BMP180;10826;52.536;13.432;2022-10-16T14:28:21;101199.00;;;25.50
21336;BMP180;10826;52.536;13.432;2022-10-16T14:30:59;101188.00;;;25.50
21336;BMP180;10826;52.536;13.432;2022-10-16T14:33:32;101192.00;;;25.40
21336;BMP180;10826;52.536;13.432;2022-10-16T14:36:13;101193.00;;;25.40
21336;BMP180;10826;52.536;13.432;2022-10-16T14:38:47;101195.00;;;25.30
21336;BMP180;10826;52.536;13.432;2022-10-16T14:41:14;101188.00;;;25.30
21336;BMP180;10826;52.536;13.432;2022-10-16T14:43:43;101196.00;;;25.30
21336;BMP180;10826;52.536;13.432;2022-10-16T14:46:19;101191.00;;;25.30
21336;BMP180;10826;52.536;13.432;2022-10-16T14:48:49;101206.00;;;25.30
21336;BMP180;10826;52.536;13.432;2022-10-16T14:51:19;101209.00;;;25.20
21336;BMP180;10826;52.536;13.432;2022-10-16T14:53:46;101209.00;;;25.20
21336;BMP180;10826;52.536;13.432;2022-10-16T14:56:24;101214.00;;;25.20
21336;BMP180;10826;52.536;13.432;2022-10-16T14:58:52;101222.00;;;25.10
21336;BMP180;10826;52.536;13.432;2022-10-16T15:01:18;101216.00;;;25.10
21336;BMP180;10826;52.536;13.432;2022-10-16T15:03:45;101227.00;;;25.10
21336;BMP180;10826;52.536;13.432;2022-10-16T15:06:13;101219.00;;;25.10
21336;BMP180;10826;52.536;13.432;2022-10-16T15:08:39;101217.00;;;25.10
21336;BMP180;10826;52.536;13.432;2022-10-16T15:11:12;101210.00;;;25.10
21336;BMP180;10826;52.536;13.432;2022-10-16T15:13:39;101225.00;;;25.00
21336;BMP180;10826;52.536;13.432;2022-10-16T15:16:09;101234.00;;;25.00
21336;BMP180;10826;52.536;13.432;2022-10-16T15:18:36;101220.00;;;24.90
21336;BMP180;10826;52.536;13.432;2022-10-16T15:21:02;101227.00;;;24.90
21336;BMP180;10826;52.536;13.432;2022-10-16T15:23:28;101244.00;;;24.90
21336;BMP180;10826;52.536;13.432;2022-10-16T15:25:56;101245.00;;;24.80
21336;BMP180;10826;52.536;13.432;2022-10-16T15:28:24;101239.00;;;24.80
21336;BMP180;10826;52.536;13.432;2022-10-16T15:30:56;101245.00;;;24.80
21336;BMP180;10826;52.536;13.432;2022-10-16T15:33:28;101251.00;;;24.70
21336;BMP180;10826;52.536;13.432;2022-10-16T15:35:58;101268.00;;;24.70
21336;BMP180;10826;52.536;13.432;2022-10-16T15:38:26;101269.00;;;24.60